Terminal Aerodrome Forecast
Issued by NWS Binghamton, NY

Home | Current Version | Previous Version | Text Only | Print | Product List | Glossary On
Versions: 1 2 3 4 5 6 7 8 9 10 11 12 13 14 15 16 17 18 19 20 21
000
FTUS41 KBGM 090530
TAFAVP
TAF
KAVP 090530Z 0906/1006 13008KT P6SM OVC050
      TEMPO 0906/0908 2SM -SN OVC020
     FM091300 09004KT P6SM OVC060
     FM091900 00000KT P6SM -SN OVC035
      TEMPO 0920/0924 1 1/2SM -SN OVC020
     FM100000 VRB03KT 1 1/2SM -SN OVC015=

USA.gov is the U.S. government's official web portal to all federal, state and local government web resources and services.